aviador You're here:

KMCX Decoded Metar

in
Report Time2017-06-24 23:55:00
UTC Time2017-06-25 00:00:28
Flight Rules vfr VFR
Wind280° at 11 kt
W.Decomp.*RWY 36: 1.9 kt HW 10.8 kt LCW
W.Rank280° ranks 5
Current wind is above 280° avg. (7.5)
Visibility9999 m
Phenomena:N/A
Clouds:Scattered 065 Hf
Expected CloudBase > 5,600 ft AGL from Temp-Dew spread
CeilingNone
Temp22°C
Dew Point08°C (41% RH)
AAT17.6°C
QNH1017 hPa
Raw Report
METAR KMCX 242355Z AUTO 28011KT 10SM SCT065 22/08 A3002 RMK AO2 T02170078
10236 20216=

Extra information for KMCX:More info

Social comments